createdAt,value
2017-11-08T00:02:01.379Z,4.20
2017-11-08T00:04:29.014Z,4.20
2017-11-08T00:06:56.671Z,4.20
2017-11-08T00:09:24.299Z,4.20
2017-11-08T00:11:51.933Z,4.10
2017-11-08T00:14:19.593Z,4.10
2017-11-08T00:16:47.226Z,4.00
2017-11-08T00:19:14.878Z,4.20
2017-11-08T00:21:45.110Z,4.20
2017-11-08T00:24:12.748Z,4.30
2017-11-08T00:26:40.409Z,4.20
2017-11-08T00:29:08.041Z,4.10
2017-11-08T00:31:35.681Z,4.10
2017-11-08T00:34:03.339Z,4.10
2017-11-08T00:36:30.971Z,4.20
2017-11-08T00:38:58.594Z,4.20
2017-11-08T00:41:26.279Z,4.10
2017-11-08T00:43:53.894Z,4.00
2017-11-08T00:46:21.524Z,4.00
2017-11-08T00:48:49.182Z,3.90
2017-11-08T00:51:16.822Z,3.80
2017-11-08T00:53:44.455Z,3.80
2017-11-08T00:56:12.881Z,3.80
2017-11-08T00:58:40.501Z,3.70
2017-11-08T01:01:08.137Z,3.90
2017-11-08T01:03:35.923Z,3.90
2017-11-08T01:06:03.571Z,3.80
2017-11-08T01:08:31.194Z,3.70
2017-11-08T01:10:58.867Z,3.70
2017-11-08T01:13:26.489Z,3.70
2017-11-08T01:15:54.145Z,3.60
2017-11-08T01:18:21.767Z,3.60
2017-11-08T01:20:49.413Z,3.60
2017-11-08T01:23:17.075Z,3.60
2017-11-08T01:25:44.714Z,3.60
2017-11-08T01:28:12.372Z,3.60
2017-11-08T01:30:39.995Z,3.60
2017-11-08T01:33:07.624Z,3.50
2017-11-08T01:35:35.352Z,3.40
2017-11-08T01:38:08.734Z,3.40
2017-11-08T01:40:42.767Z,3.20
2017-11-08T01:43:10.386Z,3.20
2017-11-08T01:45:41.329Z,3.20
2017-11-08T01:48:08.949Z,3.20
2017-11-08T01:50:39.120Z,3.20
2017-11-08T01:53:06.756Z,3.20
2017-11-08T01:55:34.389Z,3.30
2017-11-08T01:58:02.037Z,3.20
2017-11-08T02:00:29.666Z,3.20
2017-11-08T02:02:57.291Z,3.20
2017-11-08T02:05:25.755Z,3.30
2017-11-08T02:07:54.149Z,3.60
2017-11-08T02:10:21.783Z,3.60
2017-11-08T02:12:49.503Z,3.60
2017-11-08T02:15:17.135Z,3.60
2017-11-08T02:17:50.368Z,3.50
2017-11-08T02:20:18.003Z,3.50
2017-11-08T02:22:45.640Z,3.40
2017-11-08T02:25:14.071Z,3.40
2017-11-08T02:27:41.692Z,3.40
2017-11-08T02:30:09.331Z,3.40
2017-11-08T02:32:37.002Z,3.30
2017-11-08T02:35:04.652Z,3.30
2017-11-08T02:37:32.733Z,3.40
2017-11-08T02:40:01.203Z,3.40
2017-11-08T02:42:29.603Z,3.40
2017-11-08T02:44:57.271Z,3.30
2017-11-08T02:47:24.907Z,3.30
2017-11-08T02:49:52.639Z,3.20
2017-11-08T02:52:20.288Z,3.20
2017-11-08T02:54:47.923Z,3.20
2017-11-08T02:57:15.583Z,3.10
2017-11-08T02:59:43.267Z,3.10
2017-11-08T03:02:11.934Z,3.10
2017-11-08T03:04:45.195Z,3.00
2017-11-08T03:07:12.862Z,2.90
2017-11-08T03:09:40.495Z,2.90
2017-11-08T03:12:08.153Z,2.90
2017-11-08T03:14:35.820Z,2.90
2017-11-08T03:17:03.451Z,2.90
2017-11-08T03:19:31.114Z,2.90
2017-11-08T03:21:58.743Z,2.90
2017-11-08T03:24:26.369Z,2.90
2017-11-08T03:26:54.033Z,2.90
2017-11-08T03:29:21.662Z,2.90
2017-11-08T03:31:49.314Z,2.90
2017-11-08T03:34:16.927Z,2.80
2017-11-08T03:36:44.598Z,2.80
2017-11-08T03:39:12.249Z,2.80
2017-11-08T03:41:39.890Z,2.90
2017-11-08T03:44:07.539Z,2.70
2017-11-08T03:46:35.170Z,2.70
2017-11-08T03:49:02.872Z,2.70
2017-11-08T03:51:30.528Z,2.60
2017-11-08T03:53:58.159Z,2.70
2017-11-08T03:56:25.811Z,2.70
2017-11-08T03:58:53.432Z,2.70
2017-11-08T04:01:21.068Z,2.70
2017-11-08T04:03:48.747Z,2.90
2017-11-08T04:06:16.367Z,3.00
2017-11-08T04:08:44.025Z,3.20
2017-11-08T04:11:11.646Z,3.20
2017-11-08T04:13:39.280Z,3.20
2017-11-08T04:16:06.939Z,3.30
2017-11-08T04:18:34.562Z,3.30
2017-11-08T04:21:02.233Z,3.30
2017-11-08T04:23:29.872Z,3.30
2017-11-08T04:25:57.506Z,3.30
2017-11-08T04:28:25.203Z,3.40
2017-11-08T04:30:52.832Z,3.50
2017-11-08T04:33:20.491Z,3.50
2017-11-08T04:35:48.119Z,3.50
2017-11-08T04:38:15.747Z,3.60
2017-11-08T04:40:43.406Z,3.60
2017-11-08T04:43:11.112Z,3.60
2017-11-08T04:45:39.542Z,3.60
2017-11-08T04:48:07.174Z,3.50
2017-11-08T04:50:34.798Z,3.70
2017-11-08T04:53:02.471Z,3.70
2017-11-08T04:55:30.099Z,3.70
2017-11-08T04:57:57.762Z,3.70
2017-11-08T05:00:25.390Z,3.80
2017-11-08T05:02:53.030Z,3.70
2017-11-08T05:05:20.693Z,3.80
2017-11-08T05:07:48.307Z,3.90
2017-11-08T05:10:15.971Z,3.90
2017-11-08T05:12:43.646Z,3.90
2017-11-08T05:15:11.407Z,4.00
2017-11-08T05:17:39.082Z,4.00
2017-11-08T05:20:07.602Z,4.10
2017-11-08T05:22:35.275Z,4.10
2017-11-08T05:25:02.898Z,4.10
2017-11-08T05:27:30.514Z,4.20
2017-11-08T05:29:58.191Z,4.30
2017-11-08T05:32:25.839Z,4.20
2017-11-08T05:34:53.499Z,4.10
2017-11-08T05:37:21.127Z,4.10
2017-11-08T05:39:48.759Z,4.30
2017-11-08T05:42:16.422Z,4.40
2017-11-08T05:44:44.112Z,4.50
2017-11-08T05:47:11.772Z,4.50
2017-11-08T05:49:40.211Z,4.60
2017-11-08T05:52:07.844Z,4.50
2017-11-08T05:54:35.505Z,4.70
2017-11-08T05:57:03.122Z,4.70
2017-11-08T05:59:30.799Z,4.60
2017-11-08T06:01:58.441Z,4.60
2017-11-08T06:04:26.072Z,4.70
2017-11-08T06:06:53.727Z,4.80
2017-11-08T06:09:21.375Z,4.80
2017-11-08T06:11:49.034Z,4.60
2017-11-08T06:14:16.678Z,4.60
2017-11-08T06:16:44.300Z,4.60
2017-11-08T06:19:11.964Z,4.60
2017-11-08T06:21:39.615Z,4.70
2017-11-08T06:24:07.876Z,4.70
2017-11-08T06:26:35.502Z,4.80
2017-11-08T06:29:03.134Z,4.80
2017-11-08T06:31:30.818Z,4.80
2017-11-08T06:33:58.452Z,4.90
2017-11-08T06:36:26.113Z,4.90
2017-11-08T06:38:53.740Z,4.90
2017-11-08T06:41:21.390Z,4.80
2017-11-08T06:43:49.049Z,4.80
2017-11-08T06:46:16.691Z,4.90
2017-11-08T06:48:44.352Z,4.90
2017-11-08T06:51:11.976Z,4.90
2017-11-08T06:53:42.435Z,4.90
2017-11-08T06:56:10.097Z,4.90
2017-11-08T06:58:37.715Z,4.90
2017-11-08T07:01:06.130Z,4.90
2017-11-08T07:03:33.758Z,4.90
2017-11-08T07:06:01.387Z,5.00
2017-11-08T07:08:30.968Z,5.00
2017-11-08T07:10:59.354Z,5.20
2017-11-08T07:13:27.001Z,5.10
2017-11-08T07:15:54.629Z,5.20
2017-11-08T07:18:23.051Z,5.20
2017-11-08T07:20:50.695Z,5.20
2017-11-08T07:23:18.328Z,5.30
2017-11-08T07:25:45.994Z,5.50
2017-11-08T07:28:14.423Z,5.50
2017-11-08T07:30:42.051Z,5.60
2017-11-08T07:33:09.705Z,5.60
2017-11-08T07:35:37.333Z,5.70
2017-11-08T07:38:05.768Z,5.80
2017-11-08T07:40:33.407Z,5.80
2017-11-08T07:43:01.063Z,5.90
2017-11-08T07:45:28.738Z,6.00
2017-11-08T07:47:57.128Z,6.20
2017-11-08T07:50:24.774Z,6.10
2017-11-08T07:52:52.394Z,6.30
2017-11-08T07:55:22.588Z,6.50
2017-11-08T07:57:51.020Z,6.60
2017-11-08T08:00:18.645Z,6.50
2017-11-08T08:02:46.294Z,6.60
2017-11-08T08:05:13.927Z,6.70
2017-11-08T08:07:41.550Z,6.80
2017-11-08T08:10:09.985Z,7.40
2017-11-08T08:12:38.387Z,7.60
2017-11-08T08:15:06.039Z,7.60
2017-11-08T08:17:33.676Z,7.50
2017-11-08T08:20:02.060Z,7.30
2017-11-08T08:22:29.775Z,7.30
2017-11-08T08:24:59.310Z,7.40
2017-11-08T08:27:26.964Z,7.40
2017-11-08T08:29:54.586Z,7.30
2017-11-08T08:32:22.214Z,7.20
2017-11-08T08:34:50.661Z,7.20
2017-11-08T08:37:18.289Z,7.10
2017-11-08T08:39:45.966Z,7.30
2017-11-08T08:42:14.406Z,7.40
2017-11-08T08:44:42.038Z,7.40
2017-11-08T08:47:09.688Z,7.40
2017-11-08T08:49:37.311Z,7.30
2017-11-08T08:52:04.977Z,7.40
2017-11-08T08:54:32.604Z,7.40
2017-11-08T08:57:00.223Z,7.60
2017-11-08T08:59:28.723Z,7.80
2017-11-08T09:01:56.350Z,7.70
2017-11-08T09:04:24.008Z,7.80
2017-11-08T09:06:51.641Z,7.90
2017-11-08T09:09:19.267Z,7.90
2017-11-08T09:11:47.702Z,7.90
2017-11-08T09:14:16.534Z,7.80
2017-11-08T09:16:44.202Z,7.90
2017-11-08T09:19:11.838Z,8.10
2017-11-08T09:21:39.543Z,8.10
2017-11-08T09:24:07.966Z,8.20
2017-11-08T09:26:35.604Z,8.10
2017-11-08T09:29:04.006Z,8.40
2017-11-08T09:31:36.636Z,8.80
2017-11-08T09:34:04.296Z,8.90
2017-11-08T09:36:34.751Z,8.90
2017-11-08T09:39:03.150Z,8.80
2017-11-08T09:41:31.587Z,8.80
2017-11-08T09:43:59.254Z,8.80
2017-11-08T09:46:26.920Z,8.80
2017-11-08T09:48:54.597Z,9.00
2017-11-08T09:51:22.218Z,9.00
2017-11-08T09:53:49.874Z,9.20
2017-11-08T09:56:19.295Z,9.10
2017-11-08T09:58:47.700Z,9.00
2017-11-08T10:01:16.307Z,9.00
2017-11-08T10:03:43.931Z,9.00
2017-11-08T10:06:11.556Z,9.10
2017-11-08T10:08:41.165Z,9.20
2017-11-08T10:11:23.579Z,9.20
2017-11-08T10:13:51.493Z,9.10
2017-11-08T10:16:19.138Z,9.00
2017-11-08T10:18:46.762Z,8.90
2017-11-08T10:21:14.749Z,9.00
2017-11-08T10:23:42.366Z,9.00
2017-11-08T10:26:09.991Z,9.00
2017-11-08T10:28:38.411Z,9.10
2017-11-08T10:31:06.041Z,9.10
2017-11-08T10:33:33.675Z,9.10
2017-11-08T10:36:01.363Z,9.10
2017-11-08T10:38:28.991Z,9.10
2017-11-08T10:40:56.618Z,9.10
2017-11-08T10:43:24.242Z,9.10
2017-11-08T10:45:51.929Z,9.00
2017-11-08T10:48:19.637Z,9.00
2017-11-08T10:50:47.286Z,8.90
2017-11-08T10:53:14.920Z,9.00
2017-11-08T10:55:42.590Z,8.90
2017-11-08T10:58:10.213Z,8.70
2017-11-08T11:00:52.680Z,8.70
2017-11-08T11:03:27.025Z,8.80
2017-11-08T11:05:54.696Z,8.80
2017-11-08T11:08:22.320Z,9.00
2017-11-08T11:10:49.945Z,9.10
2017-11-08T11:13:17.619Z,9.10
2017-11-08T11:15:45.237Z,9.10
2017-11-08T11:18:12.864Z,9.10
2017-11-08T11:20:41.299Z,8.90
2017-11-08T11:23:08.927Z,8.90
2017-11-08T11:25:38.273Z,8.80
2017-11-08T11:28:06.033Z,8.90
2017-11-08T11:30:33.656Z,9.00
2017-11-08T11:33:01.289Z,9.10
2017-11-08T11:35:29.019Z,9.10
2017-11-08T11:37:56.647Z,9.20
2017-11-08T11:40:24.294Z,9.30
2017-11-08T11:42:51.973Z,9.30
2017-11-08T11:45:19.591Z,9.40
2017-11-08T11:47:50.065Z,9.30
2017-11-08T11:50:18.500Z,9.50
2017-11-08T11:52:46.119Z,9.50
2017-11-08T11:55:13.753Z,9.60
2017-11-08T11:57:41.406Z,9.70
2017-11-08T12:00:11.970Z,9.80
2017-11-08T12:02:40.376Z,10.00
2017-11-08T12:05:08.044Z,9.90
2017-11-08T12:07:38.241Z,10.00
2017-11-08T12:10:08.801Z,10.10
2017-11-08T12:12:37.201Z,10.10
2017-11-08T12:15:04.889Z,10.10
2017-11-08T12:17:32.543Z,10.00
2017-11-08T12:20:00.208Z,10.00
2017-11-08T12:22:29.331Z,9.90
2017-11-08T12:24:56.997Z,9.70
2017-11-08T12:27:30.212Z,9.60
2017-11-08T12:29:57.859Z,9.60
2017-11-08T12:32:25.617Z,9.60
2017-11-08T12:34:58.989Z,9.60
2017-11-08T12:37:27.620Z,9.60
2017-11-08T12:39:57.768Z,9.80
2017-11-08T12:42:27.119Z,9.50
2017-11-08T12:44:57.502Z,9.40
2017-11-08T12:47:25.163Z,9.50
2017-11-08T12:49:52.841Z,9.50
2017-11-08T12:52:20.526Z,9.20
2017-11-08T12:54:48.261Z,9.20
2017-11-08T12:57:16.717Z,9.20
2017-11-08T12:59:44.371Z,9.20
2017-11-08T13:02:12.754Z,9.20
2017-11-08T13:04:40.390Z,9.10
2017-11-08T13:07:08.823Z,9.10
2017-11-08T13:09:38.314Z,9.00
2017-11-08T13:12:06.170Z,9.00
2017-11-08T13:14:33.819Z,8.90
2017-11-08T13:17:01.454Z,8.80
2017-11-08T13:19:29.237Z,8.70
2017-11-08T13:21:57.651Z,8.80
2017-11-08T13:24:25.304Z,8.70
2017-11-08T13:26:52.938Z,8.60
2017-11-08T13:29:20.572Z,8.70
2017-11-08T13:31:48.231Z,8.60
2017-11-08T13:34:15.872Z,8.60
2017-11-08T13:36:43.531Z,8.60
2017-11-08T13:39:11.156Z,8.60
2017-11-08T13:41:38.779Z,8.60
2017-11-08T13:44:06.463Z,8.60
2017-11-08T13:46:34.114Z,8.70
2017-11-08T13:49:01.820Z,8.60
2017-11-08T13:51:30.400Z,8.50
2017-11-08T13:53:58.063Z,8.50
2017-11-08T13:56:25.746Z,8.50
2017-11-08T13:58:53.389Z,8.50
2017-11-08T14:01:21.047Z,8.50
2017-11-08T14:03:48.675Z,8.50
2017-11-08T14:06:16.435Z,8.50
2017-11-08T14:08:44.087Z,8.50
2017-11-08T14:11:11.712Z,8.40
2017-11-08T14:13:39.368Z,8.40
2017-11-08T14:16:06.991Z,8.30
2017-11-08T14:18:34.626Z,8.40
2017-11-08T14:21:02.349Z,8.40
2017-11-08T14:23:30.739Z,8.40
2017-11-08T14:25:58.387Z,8.30
2017-11-08T14:28:26.021Z,8.30
2017-11-08T14:30:54.420Z,8.20
2017-11-08T14:33:22.098Z,8.20
2017-11-08T14:35:49.728Z,8.20
2017-11-08T14:38:17.393Z,8.20
2017-11-08T14:40:45.022Z,8.20
2017-11-08T14:43:12.662Z,8.20
2017-11-08T14:45:40.336Z,8.30
2017-11-08T14:48:07.950Z,8.40
2017-11-08T14:50:35.607Z,8.40
2017-11-08T14:53:08.200Z,8.30
2017-11-08T14:55:36.644Z,8.20
2017-11-08T14:58:04.274Z,8.20
2017-11-08T15:00:31.906Z,8.30
2017-11-08T15:02:59.569Z,8.20
2017-11-08T15:05:27.221Z,8.30
2017-11-08T15:07:54.874Z,8.30
2017-11-08T15:10:22.506Z,8.20
2017-11-08T15:12:50.136Z,8.20
2017-11-08T15:15:19.680Z,8.10
2017-11-08T15:17:47.314Z,8.20
2017-11-08T15:20:20.662Z,8.20
2017-11-08T15:22:48.297Z,8.00
2017-11-08T15:25:15.923Z,8.00
2017-11-08T15:27:44.406Z,8.00
2017-11-08T15:30:17.625Z,7.90
2017-11-08T15:32:47.243Z,7.90
2017-11-08T15:35:15.669Z,7.80
2017-11-08T15:37:43.330Z,7.80
2017-11-08T15:40:21.015Z,7.70
2017-11-08T15:42:48.675Z,7.70
2017-11-08T15:45:16.317Z,7.70
2017-11-08T15:47:46.791Z,7.70
2017-11-08T15:50:14.469Z,7.60
2017-11-08T15:52:42.110Z,7.60
2017-11-08T15:55:09.814Z,7.70
2017-11-08T15:57:37.440Z,7.80
2017-11-08T16:00:05.890Z,7.70
2017-11-08T16:02:33.580Z,7.60
2017-11-08T16:05:01.230Z,7.70
2017-11-08T16:07:28.936Z,7.70
2017-11-08T16:09:56.605Z,7.60
2017-11-08T16:12:24.843Z,7.60
2017-11-08T16:14:52.550Z,7.60
2017-11-08T16:17:20.210Z,7.60
2017-11-08T16:19:47.838Z,7.50
2017-11-08T16:22:15.472Z,7.50
2017-11-08T16:24:43.220Z,7.40
2017-11-08T16:27:10.931Z,7.50
2017-11-08T16:29:38.583Z,7.40
2017-11-08T16:32:06.987Z,7.50
2017-11-08T16:34:34.675Z,7.50
2017-11-08T16:37:02.434Z,7.50
2017-11-08T16:39:30.843Z,7.60
2017-11-08T16:41:58.769Z,7.60
2017-11-08T16:44:26.562Z,7.50
2017-11-08T16:46:54.232Z,7.40
2017-11-08T16:49:21.907Z,7.20
2017-11-08T16:51:50.303Z,7.20
2017-11-08T16:54:17.967Z,7.10
2017-11-08T16:56:45.621Z,7.30
2017-11-08T16:59:13.328Z,7.10
2017-11-08T17:01:41.020Z,7.10
2017-11-08T17:04:08.660Z,7.00
2017-11-08T17:06:36.317Z,6.90
2017-11-08T17:09:03.968Z,7.00
2017-11-08T17:11:33.321Z,6.90
2017-11-08T17:14:06.428Z,6.90
2017-11-08T17:16:34.075Z,7.00
2017-11-08T17:19:03.132Z,6.90
2017-11-08T17:21:30.799Z,6.90
2017-11-08T17:23:58.435Z,6.90
2017-11-08T17:26:26.085Z,6.90
2017-11-08T17:28:53.760Z,6.80
2017-11-08T17:31:21.425Z,6.90
2017-11-08T17:33:49.847Z,6.80
2017-11-08T17:36:17.481Z,6.70
2017-11-08T17:38:45.160Z,6.70
2017-11-08T17:41:12.821Z,6.60
2017-11-08T17:43:41.323Z,6.70
2017-11-08T17:46:08.955Z,6.60
2017-11-08T17:48:38.384Z,6.60
2017-11-08T17:51:06.953Z,6.60
2017-11-08T17:53:35.482Z,6.50
2017-11-08T17:56:03.701Z,6.50
2017-11-08T17:58:31.365Z,6.50
2017-11-08T18:00:59.817Z,6.60
2017-11-08T18:03:27.558Z,6.60
2017-11-08T18:05:55.191Z,6.70
2017-11-08T18:08:23.061Z,6.70
2017-11-08T18:10:50.840Z,6.70
2017-11-08T18:13:19.235Z,6.60
2017-11-08T18:15:46.950Z,6.60
2017-11-08T18:18:15.344Z,6.60
2017-11-08T18:20:43.015Z,6.50
2017-11-08T18:23:10.648Z,6.60
2017-11-08T18:25:38.281Z,6.70
2017-11-08T18:28:06.023Z,6.60
2017-11-08T18:30:33.814Z,6.60
2017-11-08T18:33:01.504Z,6.60
2017-11-08T18:35:29.192Z,6.50
2017-11-08T18:37:56.821Z,6.60
2017-11-08T18:40:24.484Z,6.60
2017-11-08T18:42:52.287Z,6.50
2017-11-08T18:45:20.724Z,6.50
2017-11-08T18:47:48.358Z,6.50
2017-11-08T18:50:16.011Z,6.50
2017-11-08T18:52:43.689Z,6.50
2017-11-08T18:55:11.670Z,6.50
2017-11-08T18:57:39.327Z,6.40
2017-11-08T19:00:06.960Z,6.50
2017-11-08T19:02:34.600Z,6.50
2017-11-08T19:05:02.290Z,6.60
2017-11-08T19:07:29.953Z,6.60
2017-11-08T19:09:57.609Z,6.50
2017-11-08T19:12:25.246Z,6.50
2017-11-08T19:14:52.998Z,6.40
2017-11-08T19:17:22.646Z,6.40
2017-11-08T19:19:50.311Z,6.40
2017-11-08T19:22:17.974Z,6.40
2017-11-08T19:24:45.679Z,6.40
2017-11-08T19:27:13.327Z,6.40
2017-11-08T19:29:41.007Z,6.30
2017-11-08T19:32:09.392Z,6.40
2017-11-08T19:34:37.064Z,6.40
2017-11-08T19:37:05.455Z,6.40
2017-11-08T19:39:33.216Z,6.40
2017-11-08T19:42:00.874Z,6.40
2017-11-08T19:44:28.500Z,6.40
2017-11-08T19:46:56.162Z,6.40
2017-11-08T19:49:23.842Z,6.40
2017-11-08T19:51:51.480Z,6.40
2017-11-08T19:54:19.244Z,6.40
2017-11-08T19:56:46.884Z,6.40
2017-11-08T19:59:14.556Z,6.50
2017-11-08T20:01:42.188Z,6.50
2017-11-08T20:04:10.620Z,6.50
2017-11-08T20:06:38.293Z,6.40
2017-11-08T20:09:06.728Z,6.40
2017-11-08T20:11:34.408Z,6.40
2017-11-08T20:14:02.063Z,6.50
2017-11-08T20:16:30.471Z,6.50
2017-11-08T20:18:58.127Z,6.50
2017-11-08T20:21:25.760Z,6.60
2017-11-08T20:23:53.434Z,6.50
2017-11-08T20:26:21.459Z,6.50
2017-11-08T20:28:49.095Z,6.40
2017-11-08T20:31:16.905Z,6.40
2017-11-08T20:33:44.654Z,6.50
2017-11-08T20:36:12.325Z,6.60
2017-11-08T20:38:40.741Z,6.50
2017-11-08T20:41:08.418Z,6.40
2017-11-08T20:43:36.091Z,6.40
2017-11-08T20:46:03.753Z,6.50
2017-11-08T20:48:31.460Z,6.60
2017-11-08T20:50:59.100Z,6.60
2017-11-08T20:53:26.733Z,6.60
2017-11-08T20:55:54.388Z,6.50
2017-11-08T20:58:22.181Z,6.50
2017-11-08T21:00:49.930Z,6.60
2017-11-08T21:03:17.563Z,6.60
2017-11-08T21:05:45.958Z,6.60
2017-11-08T21:08:13.654Z,6.50
2017-11-08T21:10:41.644Z,6.50
2017-11-08T21:13:09.303Z,6.50
2017-11-08T21:15:37.280Z,6.40
2017-11-08T21:18:06.073Z,6.40
2017-11-08T21:20:33.792Z,6.40
2017-11-08T21:23:01.795Z,6.50
2017-11-08T21:25:29.536Z,6.50
2017-11-08T21:27:57.292Z,6.40
2017-11-08T21:30:24.940Z,6.40
2017-11-08T21:32:52.617Z,6.30
2017-11-08T21:35:21.036Z,6.30
2017-11-08T21:37:48.708Z,6.30
2017-11-08T21:40:16.347Z,6.40
2017-11-08T21:42:43.992Z,6.50
2017-11-08T21:45:11.663Z,6.50
2017-11-08T21:47:39.316Z,6.40
2017-11-08T21:50:06.996Z,6.30
2017-11-08T21:52:34.633Z,6.30
2017-11-08T21:55:02.270Z,6.40
2017-11-08T21:57:30.191Z,6.40
2017-11-08T21:59:57.833Z,6.20
2017-11-08T22:02:25.671Z,6.10
2017-11-08T22:04:54.131Z,6.20
2017-11-08T22:07:22.533Z,6.20
2017-11-08T22:09:50.187Z,6.10
2017-11-08T22:12:17.833Z,6.20
2017-11-08T22:14:45.501Z,6.20
2017-11-08T22:17:13.135Z,6.10
2017-11-08T22:19:40.769Z,6.10
2017-11-08T22:22:08.457Z,6.00
2017-11-08T22:24:39.037Z,6.10
2017-11-08T22:27:07.793Z,6.10
2017-11-08T22:29:35.443Z,6.10
2017-11-08T22:32:03.493Z,6.10
2017-11-08T22:34:35.028Z,6.10
2017-11-08T22:37:02.663Z,6.10
2017-11-08T22:39:30.335Z,6.10
2017-11-08T22:41:57.970Z,6.00
2017-11-08T22:44:25.611Z,6.00
2017-11-08T22:46:53.273Z,6.10
2017-11-08T22:49:20.907Z,6.10
2017-11-08T22:51:48.580Z,6.00
2017-11-08T22:54:16.300Z,5.90
2017-11-08T22:56:43.938Z,5.80
2017-11-08T22:59:11.608Z,5.90
2017-11-08T23:01:39.259Z,5.80
2017-11-08T23:04:06.946Z,5.80
2017-11-08T23:06:35.339Z,5.80
2017-11-08T23:09:03.545Z,5.70
2017-11-08T23:11:32.962Z,5.80
2017-11-08T23:14:01.352Z,5.70
2017-11-08T23:16:29.555Z,5.70
2017-11-08T23:18:57.229Z,5.70
2017-11-08T23:21:24.863Z,5.80
2017-11-08T23:23:52.516Z,5.70
2017-11-08T23:26:23.309Z,5.70
2017-11-08T23:28:51.067Z,5.70
2017-11-08T23:31:18.699Z,5.70
2017-11-08T23:33:46.388Z,5.70
2017-11-08T23:36:14.813Z,5.70
2017-11-08T23:38:42.445Z,5.60
2017-11-08T23:41:10.103Z,5.60
2017-11-08T23:43:37.733Z,5.60
2017-11-08T23:46:05.370Z,5.70
2017-11-08T23:48:33.038Z,5.70
2017-11-08T23:51:00.686Z,5.70
2017-11-08T23:53:28.351Z,5.70
2017-11-08T23:55:55.994Z,5.60
2017-11-08T23:58:23.661Z,5.60
